sensor_id;sensor_type;location;lat;lon;timestamp;P1;durP1;ratioP1;P2;durP2;ratioP2
14849;SDS011;7517;48.400;11.770;2022-09-12T00:00:41;2.20;;;2.10;;
14849;SDS011;7517;48.400;11.770;2022-09-12T00:03:09;2.23;;;2.03;;
14849;SDS011;7517;48.400;11.770;2022-09-12T00:05:39;2.30;;;2.10;;
14849;SDS011;7517;48.400;11.770;2022-09-12T00:08:07;2.30;;;2.10;;
14849;SDS011;7517;48.400;11.770;2022-09-12T00:10:36;2.50;;;2.40;;
14849;SDS011;7517;48.400;11.770;2022-09-12T00:13:04;2.57;;;2.10;;
14849;SDS011;7517;48.400;11.770;2022-09-12T00:15:32;2.40;;;2.27;;
14849;SDS011;7517;48.400;11.770;2022-09-12T00:18:05;3.97;;;2.53;;
14849;SDS011;7517;48.400;11.770;2022-09-12T00:20:34;2.77;;;2.67;;
14849;SDS011;7517;48.400;11.770;2022-09-12T00:23:06;3.10;;;2.40;;
14849;SDS011;7517;48.400;11.770;2022-09-12T00:25:33;2.93;;;2.60;;
14849;SDS011;7517;48.400;11.770;2022-09-12T00:28:00;2.30;;;2.17;;
14849;SDS011;7517;48.400;11.770;2022-09-12T00:30:28;2.60;;;2.40;;
14849;SDS011;7517;48.400;11.770;2022-09-12T00:32:55;2.60;;;2.40;;
14849;SDS011;7517;48.400;11.770;2022-09-12T00:35:23;2.37;;;2.20;;
14849;SDS011;7517;48.400;11.770;2022-09-12T00:37:50;2.87;;;2.60;;
14849;SDS011;7517;48.400;11.770;2022-09-12T00:40:18;3.43;;;2.67;;
14849;SDS011;7517;48.400;11.770;2022-09-12T00:42:45;3.90;;;3.20;;
14849;SDS011;7517;48.400;11.770;2022-09-12T00:45:15;2.93;;;2.73;;
14849;SDS011;7517;48.400;11.770;2022-09-12T00:47:49;3.23;;;2.40;;
14849;SDS011;7517;48.400;11.770;2022-09-12T00:50:16;2.70;;;2.50;;
14849;SDS011;7517;48.400;11.770;2022-09-12T00:52:45;2.73;;;2.40;;
14849;SDS011;7517;48.400;11.770;2022-09-12T00:55:18;3.00;;;2.67;;
14849;SDS011;7517;48.400;11.770;2022-09-12T00:57:50;2.73;;;2.53;;
14849;SDS011;7517;48.400;11.770;2022-09-12T01:00:23;2.77;;;2.57;;
14849;SDS011;7517;48.400;11.770;2022-09-12T01:02:53;2.93;;;2.73;;
14849;SDS011;7517;48.400;11.770;2022-09-12T01:05:26;2.70;;;2.50;;
14849;SDS011;7517;48.400;11.770;2022-09-12T01:07:57;6.00;;;3.20;;
14849;SDS011;7517;48.400;11.770;2022-09-12T01:10:30;9.63;;;3.00;;
14849;SDS011;7517;48.400;11.770;2022-09-12T01:13:00;4.70;;;2.70;;
14849;SDS011;7517;48.400;11.770;2022-09-12T01:15:31;3.13;;;2.83;;
14849;SDS011;7517;48.400;11.770;2022-09-12T01:18:03;2.53;;;2.33;;
14849;SDS011;7517;48.400;11.770;2022-09-12T01:23:55;6.43;;;3.07;;
14849;SDS011;7517;48.400;11.770;2022-09-12T01:33:14;5.23;;;2.50;;
14849;SDS011;7517;48.400;11.770;2022-09-12T01:36:06;8.50;;;2.50;;
14849;SDS011;7517;48.400;11.770;2022-09-12T01:39:00;3.60;;;1.90;;
14849;SDS011;7517;48.400;11.770;2022-09-12T01:41:33;3.23;;;2.27;;
14849;SDS011;7517;48.400;11.770;2022-09-12T01:44:18;2.37;;;2.10;;
14849;SDS011;7517;48.400;11.770;2022-09-12T01:46:57;2.57;;;2.37;;
14849;SDS011;7517;48.400;11.770;2022-09-12T01:49:35;3.80;;;2.00;;
14849;SDS011;7517;48.400;11.770;2022-09-12T01:52:13;2.20;;;2.00;;
14849;SDS011;7517;48.400;11.770;2022-09-12T01:54:49;4.00;;;1.80;;
14849;SDS011;7517;48.400;11.770;2022-09-12T01:57:23;2.10;;;1.90;;
14849;SDS011;7517;48.400;11.770;2022-09-12T01:59:58;2.30;;;1.90;;
14849;SDS011;7517;48.400;11.770;2022-09-12T02:02:34;1.93;;;1.50;;
14849;SDS011;7517;48.400;11.770;2022-09-12T02:05:07;4.37;;;2.13;;
14849;SDS011;7517;48.400;11.770;2022-09-12T02:07:39;4.67;;;1.97;;
14849;SDS011;7517;48.400;11.770;2022-09-12T02:10:11;2.10;;;1.90;;
14849;SDS011;7517;48.400;11.770;2022-09-12T02:12:44;2.53;;;1.83;;
14849;SDS011;7517;48.400;11.770;2022-09-12T02:15:18;2.10;;;2.00;;
14849;SDS011;7517;48.400;11.770;2022-09-12T02:17:56;1.97;;;1.87;;
14849;SDS011;7517;48.400;11.770;2022-09-12T02:20:28;2.10;;;2.00;;
14849;SDS011;7517;48.400;11.770;2022-09-12T02:23:00;2.17;;;2.03;;
14849;SDS011;7517;48.400;11.770;2022-09-12T02:25:33;2.10;;;2.00;;
14849;SDS011;7517;48.400;11.770;2022-09-12T02:28:09;2.00;;;1.80;;
14849;SDS011;7517;48.400;11.770;2022-09-12T02:30:42;5.70;;;2.10;;
14849;SDS011;7517;48.400;11.770;2022-09-12T02:33:25;3.93;;;1.67;;
14849;SDS011;7517;48.400;11.770;2022-09-12T02:35:59;1.87;;;1.77;;
14849;SDS011;7517;48.400;11.770;2022-09-12T02:38:39;2.53;;;1.80;;
14849;SDS011;7517;48.400;11.770;2022-09-12T02:41:11;2.60;;;1.70;;
14849;SDS011;7517;48.400;11.770;2022-09-12T02:43:43;2.17;;;1.90;;
14849;SDS011;7517;48.400;11.770;2022-09-12T02:46:12;2.20;;;2.00;;
14849;SDS011;7517;48.400;11.770;2022-09-12T02:48:47;2.50;;;2.30;;
14849;SDS011;7517;48.400;11.770;2022-09-12T02:51:14;3.90;;;2.20;;
14849;SDS011;7517;48.400;11.770;2022-09-12T02:53:42;2.97;;;1.80;;
14849;SDS011;7517;48.400;11.770;2022-09-12T02:56:10;1.97;;;1.87;;
14849;SDS011;7517;48.400;11.770;2022-09-12T02:58:43;2.40;;;1.93;;
14849;SDS011;7517;48.400;11.770;2022-09-12T03:01:13;2.47;;;1.77;;
14849;SDS011;7517;48.400;11.770;2022-09-12T03:04:04;2.40;;;1.93;;
14849;SDS011;7517;48.400;11.770;2022-09-12T03:06:54;1.70;;;1.60;;
14849;SDS011;7517;48.400;11.770;2022-09-12T03:09:39;1.77;;;1.67;;
14849;SDS011;7517;48.400;11.770;2022-09-12T03:12:19;1.67;;;1.57;;
14849;SDS011;7517;48.400;11.770;2022-09-12T03:18:03;1.57;;;1.47;;
14849;SDS011;7517;48.400;11.770;2022-09-12T03:20:48;5.63;;;1.93;;
14849;SDS011;7517;48.400;11.770;2022-09-12T03:23:27;9.20;;;2.47;;
14849;SDS011;7517;48.400;11.770;2022-09-12T03:26:01;5.53;;;2.17;;
14849;SDS011;7517;48.400;11.770;2022-09-12T03:28:38;1.67;;;1.57;;
14849;SDS011;7517;48.400;11.770;2022-09-12T03:31:11;3.80;;;1.90;;
14849;SDS011;7517;48.400;11.770;2022-09-12T03:33:40;5.30;;;2.20;;
14849;SDS011;7517;48.400;11.770;2022-09-12T03:36:13;3.17;;;1.87;;
14849;SDS011;7517;48.400;11.770;2022-09-12T03:38:44;2.40;;;1.53;;
14849;SDS011;7517;48.400;11.770;2022-09-12T03:41:11;3.47;;;1.40;;
14849;SDS011;7517;48.400;11.770;2022-09-12T03:43:38;1.43;;;1.33;;
14849;SDS011;7517;48.400;11.770;2022-09-12T03:46:06;1.60;;;1.50;;
14849;SDS011;7517;48.400;11.770;2022-09-12T03:48:33;1.50;;;1.40;;
14849;SDS011;7517;48.400;11.770;2022-09-12T03:51:00;2.33;;;1.90;;
14849;SDS011;7517;48.400;11.770;2022-09-12T03:53:30;1.77;;;1.67;;
14849;SDS011;7517;48.400;11.770;2022-09-12T03:55:57;1.73;;;1.57;;
14849;SDS011;7517;48.400;11.770;2022-09-12T03:58:28;4.43;;;1.90;;
14849;SDS011;7517;48.400;11.770;2022-09-12T04:00:57;3.73;;;2.10;;
14849;SDS011;7517;48.400;11.770;2022-09-12T04:03:25;2.07;;;1.90;;
14849;SDS011;7517;48.400;11.770;2022-09-12T04:05:52;2.63;;;1.87;;
14849;SDS011;7517;48.400;11.770;2022-09-12T04:08:19;2.03;;;1.93;;
14849;SDS011;7517;48.400;11.770;2022-09-12T04:10:47;1.70;;;1.60;;
14849;SDS011;7517;48.400;11.770;2022-09-12T04:13:14;1.73;;;1.63;;
14849;SDS011;7517;48.400;11.770;2022-09-12T04:15:41;1.83;;;1.60;;
14849;SDS011;7517;48.400;11.770;2022-09-12T04:18:08;1.20;;;1.20;;
14849;SDS011;7517;48.400;11.770;2022-09-12T04:20:35;1.43;;;1.33;;
14849;SDS011;7517;48.400;11.770;2022-09-12T04:23:02;1.20;;;1.20;;
14849;SDS011;7517;48.400;11.770;2022-09-12T04:25:29;1.83;;;1.40;;
14849;SDS011;7517;48.400;11.770;2022-09-12T04:27:58;1.50;;;1.40;;
14849;SDS011;7517;48.400;11.770;2022-09-12T04:30:25;1.60;;;1.50;;
14849;SDS011;7517;48.400;11.770;2022-09-12T04:32:52;1.33;;;1.27;;
14849;SDS011;7517;48.400;11.770;2022-09-12T04:35:19;3.47;;;1.97;;
14849;SDS011;7517;48.400;11.770;2022-09-12T04:37:46;1.53;;;1.43;;
14849;SDS011;7517;48.400;11.770;2022-09-12T04:40:13;1.40;;;1.30;;
14849;SDS011;7517;48.400;11.770;2022-09-12T04:42:40;1.30;;;1.20;;
14849;SDS011;7517;48.400;11.770;2022-09-12T04:45:09;1.10;;;1.00;;
14849;SDS011;7517;48.400;11.770;2022-09-12T04:47:37;1.10;;;0.93;;
14849;SDS011;7517;48.400;11.770;2022-09-12T04:50:04;1.10;;;1.10;;
14849;SDS011;7517;48.400;11.770;2022-09-12T04:52:32;1.30;;;1.20;;
14849;SDS011;7517;48.400;11.770;2022-09-12T04:54:59;1.27;;;1.17;;
14849;SDS011;7517;48.400;11.770;2022-09-12T04:57:26;1.67;;;1.30;;
14849;SDS011;7517;48.400;11.770;2022-09-12T04:59:53;1.70;;;1.60;;
14849;SDS011;7517;48.400;11.770;2022-09-12T05:02:22;1.33;;;1.20;;
14849;SDS011;7517;48.400;11.770;2022-09-12T05:04:49;1.50;;;1.40;;
14849;SDS011;7517;48.400;11.770;2022-09-12T05:07:16;1.63;;;1.10;;
14849;SDS011;7517;48.400;11.770;2022-09-12T05:09:44;1.50;;;1.40;;
14849;SDS011;7517;48.400;11.770;2022-09-12T05:12:11;1.40;;;1.30;;
14849;SDS011;7517;48.400;11.770;2022-09-12T05:14:39;1.50;;;1.20;;
14849;SDS011;7517;48.400;11.770;2022-09-12T05:17:06;1.33;;;1.23;;
14849;SDS011;7517;48.400;11.770;2022-09-12T05:19:34;1.83;;;1.40;;
14849;SDS011;7517;48.400;11.770;2022-09-12T05:22:01;1.53;;;1.43;;
14849;SDS011;7517;48.400;11.770;2022-09-12T05:24:30;1.70;;;1.57;;
14849;SDS011;7517;48.400;11.770;2022-09-12T05:26:58;1.53;;;1.47;;
14849;SDS011;7517;48.400;11.770;2022-09-12T05:29:25;1.83;;;1.70;;
14849;SDS011;7517;48.400;11.770;2022-09-12T05:31:52;2.10;;;2.00;;
14849;SDS011;7517;48.400;11.770;2022-09-12T05:34:19;1.80;;;1.70;;
14849;SDS011;7517;48.400;11.770;2022-09-12T05:36:48;1.80;;;1.70;;
14849;SDS011;7517;48.400;11.770;2022-09-12T05:39:16;1.87;;;1.77;;
14849;SDS011;7517;48.400;11.770;2022-09-12T05:41:43;1.90;;;1.80;;
14849;SDS011;7517;48.400;11.770;2022-09-12T05:44:11;1.73;;;1.53;;
14849;SDS011;7517;48.400;11.770;2022-09-12T05:46:39;1.50;;;1.40;;
14849;SDS011;7517;48.400;11.770;2022-09-12T05:49:09;1.70;;;1.60;;
14849;SDS011;7517;48.400;11.770;2022-09-12T05:51:39;1.40;;;1.30;;
14849;SDS011;7517;48.400;11.770;2022-09-12T05:54:11;1.63;;;1.53;;
14849;SDS011;7517;48.400;11.770;2022-09-12T05:56:41;1.47;;;1.37;;
14849;SDS011;7517;48.400;11.770;2022-09-12T05:59:10;1.97;;;1.60;;
14849;SDS011;7517;48.400;11.770;2022-09-12T06:01:40;2.07;;;1.80;;
14849;SDS011;7517;48.400;11.770;2022-09-12T06:04:07;1.37;;;1.30;;
14849;SDS011;7517;48.400;11.770;2022-09-12T06:06:35;1.70;;;1.53;;
14849;SDS011;7517;48.400;11.770;2022-09-12T06:09:05;1.60;;;1.50;;
14849;SDS011;7517;48.400;11.770;2022-09-12T06:11:34;1.37;;;1.27;;
14849;SDS011;7517;48.400;11.770;2022-09-12T06:14:04;1.60;;;1.50;;
14849;SDS011;7517;48.400;11.770;2022-09-12T06:16:33;1.50;;;1.40;;
14849;SDS011;7517;48.400;11.770;2022-09-12T06:19:02;1.70;;;1.60;;
14849;SDS011;7517;48.400;11.770;2022-09-12T06:21:32;3.80;;;2.00;;
14849;SDS011;7517;48.400;11.770;2022-09-12T06:24:00;3.03;;;1.70;;
14849;SDS011;7517;48.400;11.770;2022-09-12T06:26:28;2.97;;;1.60;;
14849;SDS011;7517;48.400;11.770;2022-09-12T06:28:58;4.27;;;2.00;;
14849;SDS011;7517;48.400;11.770;2022-09-12T06:31:27;2.63;;;1.90;;
14849;SDS011;7517;48.400;11.770;2022-09-12T06:33:56;1.90;;;1.80;;
14849;SDS011;7517;48.400;11.770;2022-09-12T06:36:27;1.70;;;1.60;;
14849;SDS011;7517;48.400;11.770;2022-09-12T06:38:57;2.17;;;1.80;;
14849;SDS011;7517;48.400;11.770;2022-09-12T06:41:28;1.90;;;1.60;;
14849;SDS011;7517;48.400;11.770;2022-09-12T06:43:58;1.60;;;1.50;;
14849;SDS011;7517;48.400;11.770;2022-09-12T06:46:27;2.37;;;2.17;;
14849;SDS011;7517;48.400;11.770;2022-09-12T06:48:56;2.00;;;1.90;;
14849;SDS011;7517;48.400;11.770;2022-09-12T06:51:25;1.53;;;1.43;;
14849;SDS011;7517;48.400;11.770;2022-09-12T06:53:53;1.90;;;1.57;;
14849;SDS011;7517;48.400;11.770;2022-09-12T06:56:22;2.00;;;1.70;;
14849;SDS011;7517;48.400;11.770;2022-09-12T06:58:51;1.73;;;1.60;;
14849;SDS011;7517;48.400;11.770;2022-09-12T07:01:23;1.73;;;1.53;;
14849;SDS011;7517;48.400;11.770;2022-09-12T07:03:53;1.70;;;1.60;;
14849;SDS011;7517;48.400;11.770;2022-09-12T07:06:23;1.60;;;1.50;;
14849;SDS011;7517;48.400;11.770;2022-09-12T07:08:56;1.47;;;1.20;;
14849;SDS011;7517;48.400;11.770;2022-09-12T07:11:24;2.37;;;1.60;;
14849;SDS011;7517;48.400;11.770;2022-09-12T07:13:54;1.80;;;1.70;;
14849;SDS011;7517;48.400;11.770;2022-09-12T07:16:24;1.47;;;1.37;;
14849;SDS011;7517;48.400;11.770;2022-09-12T07:18:52;1.90;;;1.37;;
14849;SDS011;7517;48.400;11.770;2022-09-12T07:21:22;1.40;;;1.30;;
14849;SDS011;7517;48.400;11.770;2022-09-12T07:23:49;1.40;;;1.30;;
14849;SDS011;7517;48.400;11.770;2022-09-12T07:26:19;1.47;;;1.37;;
14849;SDS011;7517;48.400;11.770;2022-09-12T07:28:49;1.70;;;1.60;;
14849;SDS011;7517;48.400;11.770;2022-09-12T07:31:18;2.33;;;2.13;;
14849;SDS011;7517;48.400;11.770;2022-09-12T07:33:49;3.07;;;2.30;;
14849;SDS011;7517;48.400;11.770;2022-09-12T07:36:19;2.63;;;1.80;;
14849;SDS011;7517;48.400;11.770;2022-09-12T07:38:52;2.37;;;2.17;;
14849;SDS011;7517;48.400;11.770;2022-09-12T07:41:21;2.30;;;1.70;;
14849;SDS011;7517;48.400;11.770;2022-09-12T07:43:50;3.67;;;1.70;;
14849;SDS011;7517;48.400;11.770;2022-09-12T07:46:19;2.17;;;2.07;;
14849;SDS011;7517;48.400;11.770;2022-09-12T07:48:51;1.97;;;1.53;;
14849;SDS011;7517;48.400;11.770;2022-09-12T07:51:20;1.57;;;1.47;;
14849;SDS011;7517;48.400;11.770;2022-09-12T07:53:48;1.90;;;1.80;;
14849;SDS011;7517;48.400;11.770;2022-09-12T07:56:16;2.40;;;2.20;;
14849;SDS011;7517;48.400;11.770;2022-09-12T07:58:44;1.70;;;1.57;;
14849;SDS011;7517;48.400;11.770;2022-09-12T08:01:12;1.80;;;1.70;;
14849;SDS011;7517;48.400;11.770;2022-09-12T08:03:43;1.73;;;1.63;;
14849;SDS011;7517;48.400;11.770;2022-09-12T08:06:15;1.70;;;1.60;;
14849;SDS011;7517;48.400;11.770;2022-09-12T08:08:45;1.97;;;1.80;;
14849;SDS011;7517;48.400;11.770;2022-09-12T08:11:14;1.80;;;1.70;;
14849;SDS011;7517;48.400;11.770;2022-09-12T08:13:43;1.70;;;1.60;;
14849;SDS011;7517;48.400;11.770;2022-09-12T08:16:12;1.90;;;1.80;;
14849;SDS011;7517;48.400;11.770;2022-09-12T08:18:45;1.77;;;1.67;;
14849;SDS011;7517;48.400;11.770;2022-09-12T08:21:15;2.00;;;1.77;;
14849;SDS011;7517;48.400;11.770;2022-09-12T08:23:44;1.50;;;1.40;;
14849;SDS011;7517;48.400;11.770;2022-09-12T08:26:12;1.70;;;1.60;;
14849;SDS011;7517;48.400;11.770;2022-09-12T08:28:42;1.37;;;1.27;;
14849;SDS011;7517;48.400;11.770;2022-09-12T08:31:11;1.60;;;1.40;;
14849;SDS011;7517;48.400;11.770;2022-09-12T08:33:43;1.53;;;1.43;;
14849;SDS011;7517;48.400;11.770;2022-09-12T08:36:11;1.10;;;1.10;;
14849;SDS011;7517;48.400;11.770;2022-09-12T08:38:42;1.57;;;1.47;;
14849;SDS011;7517;48.400;11.770;2022-09-12T08:41:13;1.20;;;1.10;;
14849;SDS011;7517;48.400;11.770;2022-09-12T08:44:03;2.30;;;1.70;;
14849;SDS011;7517;48.400;11.770;2022-09-12T08:47:09;1.47;;;1.37;;
14849;SDS011;7517;48.400;11.770;2022-09-12T08:49:52;1.87;;;1.77;;
14849;SDS011;7517;48.400;11.770;2022-09-12T08:52:29;2.10;;;2.00;;
14849;SDS011;7517;48.400;11.770;2022-09-12T08:55:10;2.07;;;1.87;;
14849;SDS011;7517;48.400;11.770;2022-09-12T08:57:51;2.87;;;1.90;;
14849;SDS011;7517;48.400;11.770;2022-09-12T09:00:21;1.90;;;1.80;;
14849;SDS011;7517;48.400;11.770;2022-09-12T09:06:38;2.80;;;1.83;;
14849;SDS011;7517;48.400;11.770;2022-09-12T09:09:26;1.80;;;1.70;;
14849;SDS011;7517;48.400;11.770;2022-09-12T09:12:18;2.10;;;2.00;;
14849;SDS011;7517;48.400;11.770;2022-09-12T09:18:07;1.63;;;1.53;;
14849;SDS011;7517;48.400;11.770;2022-09-12T09:20:44;1.80;;;1.70;;
14849;SDS011;7517;48.400;11.770;2022-09-12T09:23:19;1.60;;;1.50;;
14849;SDS011;7517;48.400;11.770;2022-09-12T09:25:55;1.60;;;1.50;;
14849;SDS011;7517;48.400;11.770;2022-09-12T09:28:32;1.70;;;1.60;;
14849;SDS011;7517;48.400;11.770;2022-09-12T09:31:09;1.80;;;1.70;;
14849;SDS011;7517;48.400;11.770;2022-09-12T09:33:40;1.33;;;1.23;;
14849;SDS011;7517;48.400;11.770;2022-09-12T09:36:11;1.63;;;1.53;;
14849;SDS011;7517;48.400;11.770;2022-09-12T09:38:47;1.60;;;1.50;;
14849;SDS011;7517;48.400;11.770;2022-09-12T09:41:24;1.70;;;1.60;;
14849;SDS011;7517;48.400;11.770;2022-09-12T09:44:11;1.83;;;1.50;;
14849;SDS011;7517;48.400;11.770;2022-09-12T09:46:38;2.47;;;1.60;;
14849;SDS011;7517;48.400;11.770;2022-09-12T09:49:05;1.70;;;1.60;;
14849;SDS011;7517;48.400;11.770;2022-09-12T09:51:37;1.80;;;1.70;;
14849;SDS011;7517;48.400;11.770;2022-09-12T09:54:09;1.93;;;1.80;;
14849;SDS011;7517;48.400;11.770;2022-09-12T09:56:46;1.40;;;1.30;;
14849;SDS011;7517;48.400;11.770;2022-09-12T09:59:14;2.90;;;1.70;;
14849;SDS011;7517;48.400;11.770;2022-09-12T10:01:51;1.63;;;1.53;;
14849;SDS011;7517;48.400;11.770;2022-09-12T10:04:22;1.63;;;1.53;;
14849;SDS011;7517;48.400;11.770;2022-09-12T10:06:52;1.83;;;1.73;;
14849;SDS011;7517;48.400;11.770;2022-09-12T10:09:23;1.80;;;1.70;;
14849;SDS011;7517;48.400;11.770;2022-09-12T10:11:54;1.77;;;1.53;;
14849;SDS011;7517;48.400;11.770;2022-09-12T10:14:26;1.67;;;1.57;;
14849;SDS011;7517;48.400;11.770;2022-09-12T10:17:01;1.83;;;1.73;;
14849;SDS011;7517;48.400;11.770;2022-09-12T10:19:52;1.60;;;1.50;;
14849;SDS011;7517;48.400;11.770;2022-09-12T10:22:21;2.13;;;2.03;;
14849;SDS011;7517;48.400;11.770;2022-09-12T10:24:53;1.60;;;1.50;;
14849;SDS011;7517;48.400;11.770;2022-09-12T10:27:25;1.40;;;1.30;;
14849;SDS011;7517;48.400;11.770;2022-09-12T10:29:59;1.70;;;1.60;;
14849;SDS011;7517;48.400;11.770;2022-09-12T10:32:32;1.87;;;1.77;;
14849;SDS011;7517;48.400;11.770;2022-09-12T10:35:07;1.57;;;1.47;;
14849;SDS011;7517;48.400;11.770;2022-09-12T10:37:51;1.27;;;1.20;;
14849;SDS011;7517;48.400;11.770;2022-09-12T10:40:25;1.30;;;1.23;;
14849;SDS011;7517;48.400;11.770;2022-09-12T10:42:59;1.27;;;1.17;;
14849;SDS011;7517;48.400;11.770;2022-09-12T10:45:28;1.23;;;0.93;;
14849;SDS011;7517;48.400;11.770;2022-09-12T10:48:00;1.00;;;1.00;;
14849;SDS011;7517;48.400;11.770;2022-09-12T10:50:47;1.30;;;1.00;;
14849;SDS011;7517;48.400;11.770;2022-09-12T10:53:17;1.03;;;1.00;;
14849;SDS011;7517;48.400;11.770;2022-09-12T10:55:52;1.10;;;1.10;;
14849;SDS011;7517;48.400;11.770;2022-09-12T11:01:40;1.10;;;0.97;;
14849;SDS011;7517;48.400;11.770;2022-09-12T11:04:18;0.80;;;0.80;;
14849;SDS011;7517;48.400;11.770;2022-09-12T11:06:57;0.80;;;0.80;;
14849;SDS011;7517;48.400;11.770;2022-09-12T11:09:52;1.77;;;0.80;;
14849;SDS011;7517;48.400;11.770;2022-09-12T11:12:31;0.80;;;0.80;;
14849;SDS011;7517;48.400;11.770;2022-09-12T11:15:21;0.80;;;0.80;;
14849;SDS011;7517;48.400;11.770;2022-09-12T11:18:07;1.00;;;1.00;;
14849;SDS011;7517;48.400;11.770;2022-09-12T11:20:53;0.80;;;0.80;;
14849;SDS011;7517;48.400;11.770;2022-09-12T11:27:00;0.80;;;0.80;;
14849;SDS011;7517;48.400;11.770;2022-09-12T11:29:48;1.27;;;0.80;;
14849;SDS011;7517;48.400;11.770;2022-09-12T11:32:24;0.97;;;0.97;;
14849;SDS011;7517;48.400;11.770;2022-09-12T11:35:30;0.83;;;0.83;;
14849;SDS011;7517;48.400;11.770;2022-09-12T11:41:11;0.93;;;0.87;;
14849;SDS011;7517;48.400;11.770;2022-09-12T11:43:47;1.30;;;1.20;;
14849;SDS011;7517;48.400;11.770;2022-09-12T11:46:26;1.90;;;1.27;;
14849;SDS011;7517;48.400;11.770;2022-09-12T11:49:03;0.90;;;0.90;;
14849;SDS011;7517;48.400;11.770;2022-09-12T11:51:43;1.17;;;1.10;;
14849;SDS011;7517;48.400;11.770;2022-09-12T11:54:19;1.10;;;1.10;;
14849;SDS011;7517;48.400;11.770;2022-09-12T11:56:55;0.87;;;0.87;;
14849;SDS011;7517;48.400;11.770;2022-09-12T11:59:35;1.80;;;0.90;;
14849;SDS011;7517;48.400;11.770;2022-09-12T12:02:16;1.20;;;1.10;;
14849;SDS011;7517;48.400;11.770;2022-09-12T12:05:01;0.80;;;0.80;;
14849;SDS011;7517;48.400;11.770;2022-09-12T12:07:46;1.27;;;0.97;;
14849;SDS011;7517;48.400;11.770;2022-09-12T12:10:23;1.50;;;0.93;;
14849;SDS011;7517;48.400;11.770;2022-09-12T12:13:02;0.80;;;0.80;;
14849;SDS011;7517;48.400;11.770;2022-09-12T12:15:33;0.87;;;0.87;;
14849;SDS011;7517;48.400;11.770;2022-09-12T12:18:04;1.00;;;1.00;;
14849;SDS011;7517;48.400;11.770;2022-09-12T12:20:43;0.80;;;0.80;;
14849;SDS011;7517;48.400;11.770;2022-09-12T12:23:20;2.17;;;1.00;;
14849;SDS011;7517;48.400;11.770;2022-09-12T12:25:51;1.00;;;1.00;;
14849;SDS011;7517;48.400;11.770;2022-09-12T12:31:24;1.50;;;1.40;;
14849;SDS011;7517;48.400;11.770;2022-09-12T12:36:56;1.00;;;1.00;;
14849;SDS011;7517;48.400;11.770;2022-09-12T12:46:00;0.90;;;0.90;;
14849;SDS011;7517;48.400;11.770;2022-09-12T12:51:37;0.70;;;0.70;;
14849;SDS011;7517;48.400;11.770;2022-09-12T12:54:29;2.57;;;1.13;;
14849;SDS011;7517;48.400;11.770;2022-09-12T12:57:16;1.47;;;1.37;;
14849;SDS011;7517;48.400;11.770;2022-09-12T13:00:27;1.00;;;1.00;;
14849;SDS011;7517;48.400;11.770;2022-09-12T13:03:00;1.40;;;1.30;;
14849;SDS011;7517;48.400;11.770;2022-09-12T13:05:37;1.77;;;1.63;;
14849;SDS011;7517;48.400;11.770;2022-09-12T13:08:09;6.63;;;3.83;;
14849;SDS011;7517;48.400;11.770;2022-09-12T13:10:55;2.37;;;2.13;;
14849;SDS011;7517;48.400;11.770;2022-09-12T13:13:27;1.10;;;1.10;;
14849;SDS011;7517;48.400;11.770;2022-09-12T13:16:01;1.10;;;1.00;;
14849;SDS011;7517;48.400;11.770;2022-09-12T13:18:29;1.47;;;1.37;;
14849;SDS011;7517;48.400;11.770;2022-09-12T13:21:08;1.30;;;1.20;;
14849;SDS011;7517;48.400;11.770;2022-09-12T13:23:39;1.17;;;1.13;;
14849;SDS011;7517;48.400;11.770;2022-09-12T13:26:12;2.33;;;1.63;;
14849;SDS011;7517;48.400;11.770;2022-09-12T13:28:47;0.87;;;0.87;;
14849;SDS011;7517;48.400;11.770;2022-09-12T13:31:16;0.90;;;0.90;;
14849;SDS011;7517;48.400;11.770;2022-09-12T13:33:52;0.90;;;0.90;;
14849;SDS011;7517;48.400;11.770;2022-09-12T13:39:38;0.70;;;0.70;;
14849;SDS011;7517;48.400;11.770;2022-09-12T13:42:34;0.90;;;0.90;;
14849;SDS011;7517;48.400;11.770;2022-09-12T13:45:06;1.00;;;0.90;;
14849;SDS011;7517;48.400;11.770;2022-09-12T13:47:45;0.80;;;0.80;;
14849;SDS011;7517;48.400;11.770;2022-09-12T13:50:16;1.07;;;1.07;;
14849;SDS011;7517;48.400;11.770;2022-09-12T13:52:49;1.07;;;0.97;;
14849;SDS011;7517;48.400;11.770;2022-09-12T13:55:27;1.00;;;0.90;;
14849;SDS011;7517;48.400;11.770;2022-09-12T13:58:00;1.00;;;0.90;;
14849;SDS011;7517;48.400;11.770;2022-09-12T14:00:30;0.80;;;0.80;;
14849;SDS011;7517;48.400;11.770;2022-09-12T14:03:08;0.63;;;0.63;;
14849;SDS011;7517;48.400;11.770;2022-09-12T14:06:09;0.90;;;0.87;;
14849;SDS011;7517;48.400;11.770;2022-09-12T14:08:38;0.80;;;0.80;;
14849;SDS011;7517;48.400;11.770;2022-09-12T14:11:07;0.63;;;0.63;;
14849;SDS011;7517;48.400;11.770;2022-09-12T14:13:38;0.87;;;0.87;;
14849;SDS011;7517;48.400;11.770;2022-09-12T14:16:05;1.43;;;0.70;;
14849;SDS011;7517;48.400;11.770;2022-09-12T14:18:37;0.87;;;0.87;;
14849;SDS011;7517;48.400;11.770;2022-09-12T14:21:07;0.80;;;0.80;;
14849;SDS011;7517;48.400;11.770;2022-09-12T14:23:38;1.53;;;0.80;;
14849;SDS011;7517;48.400;11.770;2022-09-12T14:26:08;1.27;;;1.00;;
14849;SDS011;7517;48.400;11.770;2022-09-12T14:28:40;0.93;;;0.80;;
14849;SDS011;7517;48.400;11.770;2022-09-12T14:31:19;0.63;;;0.63;;
14849;SDS011;7517;48.400;11.770;2022-09-12T14:33:54;0.90;;;0.80;;
14849;SDS011;7517;48.400;11.770;2022-09-12T14:36:34;0.87;;;0.87;;
14849;SDS011;7517;48.400;11.770;2022-09-12T14:39:14;0.70;;;0.70;;
14849;SDS011;7517;48.400;11.770;2022-09-12T14:41:47;1.20;;;0.73;;
14849;SDS011;7517;48.400;11.770;2022-09-12T14:44:26;0.63;;;0.63;;
14849;SDS011;7517;48.400;11.770;2022-09-12T14:46:55;0.63;;;0.63;;
14849;SDS011;7517;48.400;11.770;2022-09-12T14:49:39;0.63;;;0.63;;
14849;SDS011;7517;48.400;11.770;2022-09-12T14:52:14;1.00;;;1.00;;
14849;SDS011;7517;48.400;11.770;2022-09-12T14:54:55;0.60;;;0.60;;
14849;SDS011;7517;48.400;11.770;2022-09-12T14:57:32;1.27;;;0.70;;
14849;SDS011;7517;48.400;11.770;2022-09-12T15:00:19;0.70;;;0.70;;
14849;SDS011;7517;48.400;11.770;2022-09-12T15:02:48;0.67;;;0.67;;
14849;SDS011;7517;48.400;11.770;2022-09-12T15:05:18;0.80;;;0.80;;
14849;SDS011;7517;48.400;11.770;2022-09-12T15:07:52;0.80;;;0.80;;
14849;SDS011;7517;48.400;11.770;2022-09-12T15:10:24;1.00;;;1.00;;
14849;SDS011;7517;48.400;11.770;2022-09-12T15:16:06;0.70;;;0.70;;
14849;SDS011;7517;48.400;11.770;2022-09-12T15:18:36;0.70;;;0.70;;
14849;SDS011;7517;48.400;11.770;2022-09-12T15:21:05;0.70;;;0.70;;
14849;SDS011;7517;48.400;11.770;2022-09-12T15:23:38;0.70;;;0.70;;
14849;SDS011;7517;48.400;11.770;2022-09-12T15:26:10;1.53;;;0.70;;
14849;SDS011;7517;48.400;11.770;2022-09-12T15:28:40;1.33;;;0.80;;
14849;SDS011;7517;48.400;11.770;2022-09-12T15:31:11;0.80;;;0.80;;
14849;SDS011;7517;48.400;11.770;2022-09-12T15:33:45;0.70;;;0.70;;
14849;SDS011;7517;48.400;11.770;2022-09-12T15:36:13;1.17;;;0.73;;
14849;SDS011;7517;48.400;11.770;2022-09-12T15:38:43;0.80;;;0.80;;
14849;SDS011;7517;48.400;11.770;2022-09-12T15:41:15;0.60;;;0.60;;
14849;SDS011;7517;48.400;11.770;2022-09-12T15:43:45;0.63;;;0.63;;
14849;SDS011;7517;48.400;11.770;2022-09-12T15:46:15;1.73;;;0.70;;
14849;SDS011;7517;48.400;11.770;2022-09-12T15:48:45;0.60;;;0.60;;
14849;SDS011;7517;48.400;11.770;2022-09-12T15:51:12;0.90;;;0.90;;
14849;SDS011;7517;48.400;11.770;2022-09-12T15:53:43;0.70;;;0.70;;
14849;SDS011;7517;48.400;11.770;2022-09-12T15:56:13;0.83;;;0.83;;
14849;SDS011;7517;48.400;11.770;2022-09-12T15:58:41;0.90;;;0.90;;
14849;SDS011;7517;48.400;11.770;2022-09-12T16:01:09;0.90;;;0.90;;
14849;SDS011;7517;48.400;11.770;2022-09-12T16:03:39;2.00;;;1.00;;
14849;SDS011;7517;48.400;11.770;2022-09-12T16:06:07;0.70;;;0.70;;
14849;SDS011;7517;48.400;11.770;2022-09-12T16:08:35;0.70;;;0.70;;
14849;SDS011;7517;48.400;11.770;2022-09-12T16:11:02;0.70;;;0.70;;
14849;SDS011;7517;48.400;11.770;2022-09-12T16:13:36;0.93;;;0.80;;